Time;durP1;ratioP1;P1;durP2;ratioP2;P2;SDS_P1;SDS_P2;PMS_P1;PMS_P2;Temp;Humidity;BMP_temperature;BMP_pressure;BME280_temperature;BME280_humidity;BME280_pressure;Samples;Min_cycle;Max_cycle;Signal;HPM_P1;HPM_P2
2022/05/26 00:01:46;;;;;;;5.30;3.20;;;;;;;23.39;44.86;100774.59;106932;1283;61278;-82
2022/05/26 00:04:12;;;;;;;4.80;3.30;;;;;;;23.39;44.76;100774.21;106920;1283;61225;-86
2022/05/26 00:06:38;;;;;;;6.10;3.30;;;;;;;23.39;44.93;100765.63;106969;1283;61267;-81
2022/05/26 00:09:03;;;;;;;4.50;3.00;;;;;;;23.39;44.94;100760.41;106901;1283;73807;-81
2022/05/26 00:11:31;;;;;;;5.90;3.30;;;;;;;23.39;44.96;100757.70;106885;1282;61252;-82
2022/05/26 00:13:57;;;;;;;5.60;3.20;;;;;;;23.39;44.85;100752.84;106914;1283;61906;-82
2022/05/26 00:16:23;;;;;;;5.50;3.20;;;;;;;23.39;44.87;100746.04;106910;1283;61243;-83
2022/05/26 00:18:49;;;;;;;5.50;3.10;;;;;;;23.39;44.86;100736.52;106895;1283;61359;-81
2022/05/26 00:21:16;;;;;;;5.50;3.10;;;;;;;23.39;44.95;100728.64;106580;1284;61286;-82
2022/05/26 00:23:42;;;;;;;4.80;3.20;;;;;;;23.39;44.88;100724.85;106944;1283;61247;-82
2022/05/26 00:26:07;;;;;;;4.70;3.10;;;;;;;23.39;44.79;100713.58;106927;1283;61321;-84
2022/05/26 00:28:33;;;;;;;6.10;3.00;;;;;;;23.38;44.77;100699.56;106586;1283;61339;-82
2022/05/26 00:30:59;;;;;;;4.80;3.20;;;;;;;23.38;44.73;100703.39;107272;1283;61294;-82
2022/05/26 00:33:24;;;;;;;5.00;2.90;;;;;;;23.38;44.74;100715.75;106830;1283;74687;-84
2022/05/26 00:35:53;;;;;;;5.70;3.40;;;;;;;23.38;44.77;100714.52;106882;1284;61177;-82
2022/05/26 00:38:19;;;;;;;4.40;3.10;;;;;;;23.38;44.75;100725.25;107248;1283;61205;-82
2022/05/26 00:40:48;;;;;;;5.10;3.30;;;;;;;23.38;44.83;100730.85;106864;1284;61308;-89
2022/05/26 00:43:13;;;;;;;5.60;3.00;;;;;;;23.38;44.75;100733.37;106662;1283;74467;-82
2022/05/26 00:45:59;;;;;;;5.40;3.10;;;;;;;23.38;44.77;100740.02;106599;1284;61266;-86
2022/05/26 00:48:28;;;;;;;6.50;3.00;;;;;;;23.38;44.83;100740.02;106946;1283;61240;-87
2022/05/26 00:50:57;;;;;;;5.20;3.20;;;;;;;23.38;44.90;100735.56;106848;1283;72747;-82
2022/05/26 00:53:24;;;;;;;5.00;3.00;;;;;;;23.38;44.80;100735.20;106485;1284;74648;-83
2022/05/26 00:56:03;;;;;;;4.90;3.00;;;;;;;23.37;44.89;100721.94;107202;1283;61174;-84
2022/05/26 00:58:31;;;;;;;5.30;2.90;;;;;;;23.37;44.89;100706.85;106929;1283;61144;-83
2022/05/26 01:00:57;;;;;;;5.80;3.00;;;;;;;23.37;44.83;100705.42;107216;1283;73731;-85
2022/05/26 01:03:37;;;;;;;4.50;2.90;;;;;;;23.38;44.85;100706.11;106879;1283;74841;-84
2022/05/26 01:06:13;;;;;;;;;;;;;;;23.38;44.80;100696.59;107193;1283;61119;-81
2022/05/26 01:08:59;;;;;;;4.70;3.10;;;;;;;23.35;44.81;100695.00;107232;1281;61154;-81
2022/05/26 01:11:28;;;;;;;5.20;2.90;;;;;;;23.36;44.76;100690.13;106487;1284;72714;-82
2022/05/26 01:13:55;;;;;;;6.00;3.00;;;;;;;23.36;44.79;100703.02;106912;1283;74837;-81
2022/05/26 01:16:30;;;;;;;5.10;3.00;;;;;;;23.35;44.92;100711.31;106877;1283;61144;-81
2022/05/26 01:19:28;;;;;;;5.50;3.10;;;;;;;23.36;44.86;100713.97;107234;1283;62513;-81
2022/05/26 01:21:57;;;;;;;5.30;2.80;;;;;;;23.35;44.84;100716.34;106776;1283;72854;-83
2022/05/26 01:24:51;;;;;;;5.10;3.10;;;;;;;23.36;44.75;100724.20;106918;1283;75786;-81
2022/05/26 01:27:38;;;;;;;4.60;2.90;;;;;;;23.35;44.81;100735.91;106365;1289;61128;-83
2022/05/26 01:30:23;;;;;;;6.10;3.10;;;;;;;23.36;44.81;100745.75;106159;1289;61226;-83
2022/05/26 01:32:56;;;;;;;4.90;3.20;;;;;;;23.36;44.84;100757.80;106165;1289;73854;-83
2022/05/26 01:36:01;;;;;;;5.60;3.10;;;;;;;23.36;44.79;100766.25;106351;1288;74434;-82
2022/05/26 01:38:53;;;;;;;7.20;3.10;;;;;;;23.35;44.93;100765.38;106146;1289;61277;-82
2022/05/26 01:41:38;;;;;;;5.30;3.10;;;;;;;23.35;44.84;100759.81;106161;1289;61168;-84
2022/05/26 01:44:07;;;;;;;5.20;3.10;;;;;;;23.36;44.82;100762.29;106103;1289;71063;-83
2022/05/26 01:46:38;;;;;;;4.80;3.00;;;;;;;23.36;44.84;100781.52;106106;1289;75589;-82
2022/05/26 01:49:06;;;;;;;4.60;3.00;;;;;;;23.36;44.79;100802.30;106406;1289;61558;-83
2022/05/26 01:51:36;;;;;;;4.40;3.00;;;;;;;23.36;44.82;100841.31;106122;1289;61247;-84
2022/05/26 01:54:14;;;;;;;4.50;2.90;;;;;;;23.36;44.78;100910.25;106210;1289;72611;-83
2022/05/26 01:56:52;;;;;;;4.70;3.20;;;;;;;23.36;44.86;100952.61;106231;1289;75999;-82
2022/05/26 01:59:22;;;;;;;5.20;3.30;;;;;;;23.36;44.90;100973.45;106148;1289;61771;-83
2022/05/26 02:01:55;;;;;;;4.50;3.00;;;;;;;23.36;44.85;100971.10;106231;1289;62280;-83
2022/05/26 02:04:27;;;;;;;5.40;3.20;;;;;;;23.37;44.80;100961.38;106596;1283;73885;-83
2022/05/26 02:07:00;;;;;;;4.50;3.00;;;;;;;23.37;44.88;100945.22;106695;1283;73981;-82
2022/05/26 02:09:29;;;;;;;5.00;3.00;;;;;;;23.36;44.80;100936.63;106847;1285;61389;-85
2022/05/26 02:12:07;;;;;;;5.90;3.10;;;;;;;23.37;44.80;100926.54;106877;1283;62566;-83
2022/05/26 02:14:41;;;;;;;4.20;2.80;;;;;;;23.36;44.90;100931.58;107202;1282;73648;-82
2022/05/26 02:17:16;;;;;;;5.40;3.40;;;;;;;23.37;44.90;100941.45;106882;1283;74734;-82
2022/05/26 02:20:41;;;;;;;4.40;2.80;;;;;;;23.37;44.86;100933.36;107216;1283;61442;-82
2022/05/26 02:23:23;;;;;;;4.70;3.20;;;;;;;23.35;44.86;100916.80;105333;1299;61237;-83
2022/05/26 02:25:50;;;;;;;5.20;2.90;;;;;;;23.35;45.00;100914.24;105374;1297;72679;-82
2022/05/26 02:28:16;;;;;;;4.90;3.10;;;;;;;23.36;44.96;100900.21;105310;1297;61310;-83
2022/05/26 02:30:42;;;;;;;5.20;3.10;;;;;;;23.36;44.64;100912.94;105426;1297;61521;-83
2022/05/26 02:33:09;;;;;;;4.00;2.90;;;;;;;23.36;45.01;100908.63;105357;1297;61361;-84
2022/05/26 02:35:42;;;;;;;5.80;3.40;;;;;;;23.36;44.91;100906.64;105374;1297;61274;-87
2022/05/26 02:38:16;;;;;;;5.50;3.20;;;;;;;23.37;44.81;100905.71;105345;1297;74878;-81
2022/05/26 02:40:45;;;;;;;5.00;2.90;;;;;;;23.36;44.80;100902.54;105318;1297;61282;-79
2022/05/26 02:43:18;;;;;;;5.80;3.10;;;;;;;23.36;44.82;100896.41;105273;1300;61445;-85
2022/05/26 02:45:55;;;;;;;4.60;2.90;;;;;;;23.36;44.81;100883.14;105049;1301;72842;-87
2022/05/26 02:49:03;;;;;;;4.90;3.10;;;;;;;23.35;44.74;100870.05;105271;1300;73641;-81
2022/05/26 02:51:56;;;;;;;4.50;3.10;;;;;;;23.35;44.94;100859.33;104940;1303;61986;-83
2022/05/26 02:54:36;;;;;;;4.40;3.10;;;;;;;23.35;45.10;100863.99;104519;1309;61332;-83
2022/05/26 02:57:26;;;;;;;5.10;3.30;;;;;;;23.35;45.19;100858.77;104519;1309;73903;-83
2022/05/26 03:00:03;;;;;;;4.80;3.10;;;;;;;23.35;45.10;100854.83;105017;1299;74602;-81
2022/05/26 03:02:36;;;;;;;3.80;2.90;;;;;;;23.35;45.02;100850.34;105054;1300;61301;-82
2022/05/26 03:05:28;;;;;;;5.30;3.30;;;;;;;23.35;44.84;100845.86;105336;1300;61204;-82
2022/05/26 03:07:55;;;;;;;4.60;3.10;;;;;;;23.35;45.08;100847.83;105187;1300;73793;-82
2022/05/26 03:10:31;;;;;;;5.40;3.30;;;;;;;23.36;45.05;100845.45;105223;1300;76626;-82
2022/05/26 03:12:59;;;;;;;4.70;3.10;;;;;;;23.35;44.81;100837.56;105217;1300;61141;-80
2022/05/26 03:15:25;;;;;;;4.40;3.10;;;;;;;23.36;45.21;100828.38;105321;1298;61412;-83
2022/05/26 03:17:54;;;;;;;5.40;3.40;;;;;;;23.36;44.99;100831.05;105329;1297;61280;-83
2022/05/26 03:20:19;;;;;;;5.10;3.30;;;;;;;23.36;45.19;100839.14;105350;1296;74613;-83
2022/05/26 03:22:45;;;;;;;4.90;3.20;;;;;;;23.36;45.26;100829.79;105210;1297;61345;-82
2022/05/26 03:25:11;;;;;;;6.10;3.40;;;;;;;23.36;44.86;100808.77;105311;1297;61296;-82
2022/05/26 03:27:37;;;;;;;4.90;3.30;;;;;;;23.36;44.95;100811.64;105385;1292;61172;-83
2022/05/26 03:30:04;;;;;;;5.30;3.30;;;;;;;23.36;45.04;100807.17;105931;1292;61801;-83
2022/05/26 03:32:33;;;;;;;5.90;3.00;;;;;;;23.36;44.88;100805.04;106592;1286;61216;-82
2022/05/26 03:40:46;;;;;;;5.20;3.60;;;;;;;23.34;44.99;100824.05;106919;1283;74742;-83
2022/05/26 03:43:12;;;;;;;6.30;3.80;;;;;;;23.33;44.99;100838.79;106915;1283;61338;-83
2022/05/26 03:45:38;;;;;;;9.00;4.20;;;;;;;23.32;44.98;100849.15;106887;1283;61689;-84
2022/05/26 03:48:04;;;;;;;13.00;5.00;;;;;;;23.32;45.14;100849.20;106873;1283;61194;-84
2022/05/26 03:50:30;;;;;;;9.30;5.00;;;;;;;23.31;45.35;100846.59;107208;1283;62760;-82
2022/05/26 03:52:58;;;;;;;9.60;4.60;;;;;;;23.30;45.47;100840.88;106913;1283;61360;-83
2022/05/26 03:55:25;;;;;;;11.20;5.00;;;;;;;23.30;45.65;100838.19;106858;1283;61756;-84
2022/05/26 03:57:51;;;;;;;11.00;5.20;;;;;;;23.28;45.95;100833.65;106865;1283;73799;-84
2022/05/26 04:00:21;;;;;;;11.30;5.40;;;;;;;23.28;46.13;100826.13;106880;1283;61445;-83
2022/05/26 04:02:47;;;;;;;7.80;5.50;;;;;;;23.27;46.41;100828.94;106976;1283;61260;-82
2022/05/26 04:05:13;;;;;;;8.90;5.50;;;;;;;23.26;46.64;100816.56;107140;1283;59355;-83
2022/05/26 04:07:39;;;;;;;9.90;6.00;;;;;;;23.26;46.87;100808.11;106653;1284;61229;-84
2022/05/26 04:10:06;;;;;;;9.00;5.20;;;;;;;23.26;47.10;100811.02;106875;1283;61370;-84
2022/05/26 04:12:32;;;;;;;7.70;5.40;;;;;;;23.25;47.19;100812.67;106894;1283;61373;-83
2022/05/26 04:14:59;;;;;;;9.50;6.40;;;;;;;23.25;47.30;100818.81;106850;1284;61215;-81
2022/05/26 04:17:27;;;;;;;12.20;6.50;;;;;;;23.25;47.39;100828.17;106466;1285;72541;-79
2022/05/26 04:19:53;;;;;;;8.20;6.60;;;;;;;23.24;47.61;100828.41;106867;1286;61364;-85
2022/05/26 04:22:18;;;;;;;9.10;6.20;;;;;;;23.24;47.62;100826.77;106886;1283;61340;-85
2022/05/26 04:24:46;;;;;;;11.80;7.10;;;;;;;23.23;47.85;100826.11;106779;1286;61428;-84
2022/05/26 04:27:11;;;;;;;13.40;7.10;;;;;;;23.23;47.92;100834.56;107169;1283;61370;-82
2022/05/26 04:29:37;;;;;;;10.70;7.20;;;;;;;23.23;48.02;100832.98;106552;1285;61327;-79
2022/05/26 04:32:03;;;;;;;8.90;6.70;;;;;;;23.24;48.07;100827.86;106565;1286;61304;-81
2022/05/26 04:34:29;;;;;;;12.20;8.20;;;;;;;23.24;48.16;100829.46;106627;1284;61453;-82
2022/05/26 04:36:55;;;;;;;12.00;7.60;;;;;;;23.23;48.25;100832.94;106825;1283;62504;-82
2022/05/26 04:39:21;;;;;;;16.10;9.20;;;;;;;23.24;48.23;100837.41;106969;1283;72835;-83
2022/05/26 04:41:46;;;;;;;11.50;8.30;;;;;;;23.23;48.32;100835.80;106710;1283;61257;-82
2022/05/26 04:44:13;;;;;;;15.60;8.80;;;;;;;23.23;48.34;100838.73;106689;1284;61259;-82
2022/05/26 04:46:39;;;;;;;17.80;9.40;;;;;;;23.21;48.38;100840.83;106632;1283;59245;-82
2022/05/26 04:49:05;;;;;;;22.80;9.20;;;;;;;23.20;48.36;100838.63;106650;1283;59501;-82
2022/05/26 04:51:31;;;;;;;25.60;9.80;;;;;;;23.17;48.50;100837.95;106417;1284;61121;-82
2022/05/26 04:53:56;;;;;;;21.40;9.20;;;;;;;23.14;48.48;100848.06;106204;1283;61620;-82
2022/05/26 04:56:23;;;;;;;18.90;9.90;;;;;;;23.12;48.47;100854.51;106037;1283;61355;-81
2022/05/26 04:58:50;;;;;;;22.30;9.00;;;;;;;23.09;48.58;100862.02;106489;1285;59834;-82
2022/05/26 05:01:17;;;;;;;16.30;9.40;;;;;;;23.09;48.67;100863.29;106136;1283;73025;-81
2022/05/26 05:03:43;;;;;;;22.80;8.60;;;;;;;23.10;48.86;100867.70;106484;1283;75594;-81
2022/05/26 05:06:09;;;;;;;16.90;8.30;;;;;;;23.12;48.77;100867.39;106444;1283;61266;-80
2022/05/26 05:08:34;;;;;;;20.50;8.30;;;;;;;23.16;48.83;100873.95;106587;1283;61217;-79
2022/05/26 05:11:00;;;;;;;16.10;8.40;;;;;;;23.18;48.78;100884.90;106542;1283;61361;-80
2022/05/26 05:13:26;;;;;;;15.60;7.40;;;;;;;23.22;48.86;100881.58;107412;1283;59244;-80
2022/05/26 05:16:15;;;;;;;16.10;7.20;;;;;;;23.25;48.81;100882.33;107429;1283;59436;-80
2022/05/26 05:18:40;;;;;;;20.80;7.40;;;;;;;23.30;48.78;100885.05;107458;1283;59677;-80
2022/05/26 05:21:10;;;;;;;14.60;7.10;;;;;;;23.33;48.67;100883.70;107290;1283;59555;-80
2022/05/26 05:23:37;;;;;;;13.20;6.90;;;;;;;23.37;48.67;100887.71;107360;1284;74555;-80
2022/05/26 05:26:03;;;;;;;12.10;6.10;;;;;;;23.40;48.54;100895.69;106692;1284;60416;-80
2022/05/26 05:28:31;;;;;;;13.00;5.50;;;;;;;23.43;48.43;100900.36;106289;1284;61352;-80
2022/05/26 05:31:03;;;;;;;8.00;4.10;;;;;;;23.46;48.29;100902.64;106489;1283;73708;-81
2022/05/26 05:33:39;;;;;;;9.30;5.30;;;;;;;23.50;48.04;100904.86;106748;1286;74868;-80
2022/05/26 05:36:05;;;;;;;13.50;5.10;;;;;;;23.53;47.97;100903.17;107404;1282;61291;-81
2022/05/26 05:38:31;;;;;;;10.10;5.40;;;;;;;23.56;47.89;100906.14;107395;1283;59494;-80
2022/05/26 05:40:57;;;;;;;13.10;5.40;;;;;;;23.58;47.81;100908.11;107607;1283;59118;-80
2022/05/26 05:43:22;;;;;;;13.30;5.40;;;;;;;23.61;47.74;100913.66;106685;1283;59340;-80
2022/05/26 05:45:48;;;;;;;14.70;5.10;;;;;;;23.63;47.49;100911.88;106670;1283;59445;-79
2022/05/26 05:48:14;;;;;;;11.40;5.30;;;;;;;23.65;47.35;100919.45;106518;1284;61237;-80
2022/05/26 05:50:39;;;;;;;19.90;5.10;;;;;;;23.67;47.18;100921.80;106955;1283;61263;-84
2022/05/26 05:53:05;;;;;;;17.20;5.70;;;;;;;23.68;47.17;100920.28;106602;1284;73146;-79
2022/05/26 05:55:31;;;;;;;16.50;5.10;;;;;;;23.70;47.11;100925.86;106623;1283;61333;-80
2022/05/26 05:57:57;;;;;;;23.40;5.10;;;;;;;23.71;47.14;100928.12;106365;1283;61765;-79
2022/05/26 06:00:23;;;;;;;12.30;4.80;;;;;;;23.70;47.09;100933.02;106419;1283;61517;-80
2022/05/26 06:02:48;;;;;;;14.70;4.70;;;;;;;23.71;47.11;100933.17;106652;1283;61312;-80
2022/05/26 06:05:14;;;;;;;13.70;4.60;;;;;;;23.72;47.08;100932.74;106420;1283;61237;-82
2022/05/26 06:07:41;;;;;;;16.10;5.00;;;;;;;23.73;47.07;100929.77;106637;1283;74630;-80
2022/05/26 06:10:11;;;;;;;13.60;4.30;;;;;;;23.74;47.02;100933.44;106629;1283;61151;-79
2022/05/26 06:12:37;;;;;;;12.00;4.90;;;;;;;23.76;47.11;100936.52;107046;1286;60479;-80
2022/05/26 06:15:04;;;;;;;8.50;4.40;;;;;;;23.77;46.95;100934.60;106286;1283;837637;-80
2022/05/26 06:17:29;;;;;;;11.80;4.20;;;;;;;23.79;47.02;100935.90;106698;1283;61291;-79
2022/05/26 06:19:55;;;;;;;8.10;3.90;;;;;;;23.81;46.89;100938.47;106921;1283;59554;-79
2022/05/26 06:22:21;;;;;;;9.10;3.80;;;;;;;23.82;46.89;100934.61;106886;1283;61346;-80
2022/05/26 06:24:47;;;;;;;8.40;4.20;;;;;;;23.83;46.76;100931.27;106738;1283;59449;-80
2022/05/26 06:29:58;;;;;;;21.50;4.30;;;;;;;23.87;46.62;100936.39;106694;1283;61214;-80
2022/05/26 06:37:54;;;;;;;15.10;4.10;;;;;;;23.90;46.59;100941.19;106623;1283;74505;-80
2022/05/26 06:40:20;;;;;;;10.70;4.40;;;;;;;23.90;46.32;100939.37;106632;1284;59506;-79
2022/05/26 06:42:46;;;;;;;11.00;4.10;;;;;;;23.91;46.36;100936.63;106449;1283;59682;-79
2022/05/26 06:45:13;;;;;;;13.30;4.20;;;;;;;23.91;46.23;100941.06;106725;1282;61326;-80
2022/05/26 06:47:39;;;;;;;12.70;4.30;;;;;;;23.92;46.25;100941.17;106743;1284;60056;-79
2022/05/26 06:50:05;;;;;;;16.10;4.40;;;;;;;23.93;46.31;100944.91;106008;1284;61159;-78
2022/05/26 06:52:32;;;;;;;13.50;3.90;;;;;;;23.94;46.26;100943.05;107218;1283;59731;-79
2022/05/26 06:54:59;;;;;;;16.60;4.50;;;;;;;23.96;46.26;100945.95;107381;1282;59228;-79
2022/05/26 06:57:27;;;;;;;21.40;4.40;;;;;;;23.96;46.36;100943.23;107359;1283;59434;-80
2022/05/26 06:59:53;;;;;;;18.00;4.30;;;;;;;23.99;46.62;100944.27;107545;1282;61654;-79
2022/05/26 07:02:19;;;;;;;15.70;4.40;;;;;;;24.01;46.77;100941.89;107400;1283;59372;-79
2022/05/26 07:04:44;;;;;;;15.50;4.10;;;;;;;24.04;46.92;100942.02;107876;1282;59627;-80
2022/05/26 07:07:12;;;;;;;13.60;3.80;;;;;;;24.04;46.94;100938.75;106494;1283;61224;-79
2022/05/26 07:09:39;;;;;;;25.10;4.90;;;;;;;24.04;46.97;100939.10;107518;1283;59159;-80
2022/05/26 07:12:05;;;;;;;19.30;5.00;;;;;;;24.05;47.04;100939.77;107418;1283;59489;-79
2022/05/26 07:14:30;;;;;;;10.90;3.90;;;;;;;24.07;47.03;100948.10;107644;1283;59047;-81
2022/05/26 07:16:56;;;;;;;12.30;3.70;;;;;;;24.08;47.03;100948.52;107432;1282;59984;-79
2022/05/26 07:19:22;;;;;;;10.40;3.40;;;;;;;24.08;47.01;100950.82;106330;1284;61256;-79
2022/05/26 07:21:48;;;;;;;14.00;3.90;;;;;;;24.08;47.09;100953.88;106655;1283;61341;-79
2022/05/26 07:24:18;;;;;;;9.30;3.70;;;;;;;24.08;47.09;100956.04;106612;1283;61631;-80
2022/05/26 07:26:44;;;;;;;13.60;3.40;;;;;;;24.08;46.90;100951.58;107212;1284;73100;-80
2022/05/26 07:29:10;;;;;;;12.70;3.60;;;;;;;24.08;46.92;100953.39;107206;1284;59468;-80
2022/05/26 07:31:35;;;;;;;15.00;3.80;;;;;;;24.08;46.85;100956.58;107599;1282;59441;-80
2022/05/26 07:34:01;;;;;;;21.10;4.20;;;;;;;24.08;46.85;100958.54;107148;1284;61270;-80
2022/05/26 07:42:02;;;;;;;12.30;3.70;;;;;;;24.08;47.06;100955.52;106601;1283;61253;-80
2022/05/26 07:44:28;;;;;;;13.00;3.20;;;;;;;24.08;47.34;100956.05;106362;1284;60442;-81
2022/05/26 07:46:54;;;;;;;20.60;4.50;;;;;;;24.09;47.42;100965.90;106487;1284;59448;-80
2022/05/26 07:49:19;;;;;;;14.60;3.50;;;;;;;24.10;47.61;100962.75;106599;1284;61217;-80
2022/05/26 07:51:45;;;;;;;18.40;4.00;;;;;;;24.12;47.64;100964.78;106904;1283;59836;-81
2022/05/26 07:54:10;;;;;;;19.60;3.60;;;;;;;24.12;47.84;100968.69;106213;1284;59683;-82
2022/05/26 07:56:39;;;;;;;11.80;3.10;;;;;;;24.13;47.79;100975.50;106071;1284;61391;-80
2022/05/26 07:59:05;;;;;;;20.40;3.80;;;;;;;24.14;47.68;100976.84;106346;1284;72637;-79
2022/05/26 08:01:31;;;;;;;19.10;3.80;;;;;;;24.15;47.83;100981.07;106110;1284;61269;-81
2022/05/26 08:03:57;;;;;;;10.30;3.20;;;;;;;24.15;47.78;100986.80;105974;1283;61238;-80
2022/05/26 08:06:23;;;;;;;10.60;3.10;;;;;;;24.16;47.78;100993.77;106119;1283;61345;-80
2022/05/26 08:08:49;;;;;;;8.80;2.70;;;;;;;24.17;47.42;100992.06;106229;1284;61302;-80
2022/05/26 08:11:14;;;;;;;13.90;3.20;;;;;;;24.17;47.06;100993.08;106312;1284;61294;-79
2022/05/26 08:13:40;;;;;;;11.20;2.90;;;;;;;24.19;46.78;100993.46;106677;1283;59377;-80
2022/05/26 08:16:05;;;;;;;11.70;3.20;;;;;;;24.21;46.62;100995.98;106365;1284;61214;-81
2022/05/26 08:18:32;;;;;;;14.90;3.30;;;;;;;24.22;46.53;100996.27;106468;1284;61416;-80
2022/05/26 08:21:07;;;;;;;10.30;2.90;;;;;;;24.22;46.37;100989.43;106247;1284;62843;-81
2022/05/26 08:23:33;;;;;;;6.90;2.80;;;;;;;24.23;46.34;100992.48;106218;1284;76471;-80
2022/05/26 08:25:58;;;;;;;7.10;3.30;;;;;;;24.22;46.20;100988.39;106577;1284;62053;-80
2022/05/26 08:28:24;;;;;;;8.50;3.10;;;;;;;24.22;46.26;100993.26;106107;1284;61529;-79
2022/05/26 08:30:49;;;;;;;12.20;2.80;;;;;;;24.22;46.14;100983.92;105992;1287;61294;-80
2022/05/26 08:33:15;;;;;;;9.70;2.90;;;;;;;24.21;46.03;100990.23;106133;1284;61210;-79
2022/05/26 08:35:40;;;;;;;9.40;3.10;;;;;;;24.20;45.97;100992.48;106195;1284;76090;-79
2022/05/26 08:38:06;;;;;;;11.00;3.10;;;;;;;24.19;46.11;100992.95;106133;1284;61374;-80
2022/05/26 08:40:48;;;;;;;17.20;3.20;;;;;;;24.18;46.06;100988.70;105887;1284;61430;-79
2022/05/26 08:43:20;;;;;;;5.50;2.60;;;;;;;24.17;46.08;100986.48;105910;1284;72531;-82
2022/05/26 08:45:51;;;;;;;17.20;3.80;;;;;;;24.16;46.14;100985.98;107242;1283;75913;-80
2022/05/26 08:48:38;;;;;;;9.90;3.10;;;;;;;24.16;46.12;100989.45;106151;1284;61094;-80
2022/05/26 08:51:05;;;;;;;9.50;3.20;;;;;;;24.17;46.21;100991.34;106358;1284;61912;-80
2022/05/26 08:53:35;;;;;;;15.70;3.60;;;;;;;24.19;46.42;100991.30;106270;1284;72867;-83
2022/05/26 08:56:03;;;;;;;6.90;3.00;;;;;;;24.22;46.40;100996.84;107261;1282;75804;-81
2022/05/26 08:59:01;;;;;;;11.30;3.50;;;;;;;24.24;46.58;100991.23;107311;1283;61269;-82
2022/05/26 09:01:31;;;;;;;10.80;3.10;;;;;;;24.28;46.66;100996.93;106963;1283;61213;-81
2022/05/26 09:03:57;;;;;;;15.40;3.50;;;;;;;24.31;46.70;100994.11;106444;1284;73042;-81
2022/05/26 09:06:23;;;;;;;18.30;3.60;;;;;;;24.34;46.87;100993.38;105885;1284;61459;-80
2022/05/26 09:14:38;;;;;;;20.30;4.80;;;;;;;24.37;46.97;100990.02;105048;1290;72512;-80
2022/05/26 09:17:06;;;;;;;14.50;4.20;;;;;;;24.37;46.87;100989.71;105441;1290;75814;-80
2022/05/26 09:19:44;;;;;;;12.30;4.30;;;;;;;24.35;46.89;100988.80;105372;1290;61186;-79
2022/05/26 09:22:30;;;;;;;15.10;4.70;;;;;;;24.34;46.87;100992.49;106499;1290;61547;-79
2022/05/26 09:24:56;;;;;;;20.50;4.60;;;;;;;24.31;46.88;100987.83;106741;1290;72698;-80
2022/05/26 09:27:36;;;;;;;9.70;4.40;;;;;;;24.30;46.93;100982.33;106518;1290;59468;-79
2022/05/26 09:30:13;;;;;;;12.60;4.80;;;;;;;24.30;46.81;100975.70;106696;1290;59925;-79
2022/05/26 09:32:40;;;;;;;14.40;4.30;;;;;;;24.29;46.82;100977.63;106758;1290;60761;-80
2022/05/26 09:35:15;;;;;;;12.40;4.60;;;;;;;24.28;46.79;100974.07;105935;1290;59608;-79
2022/05/26 09:37:42;;;;;;;9.70;4.00;;;;;;;24.27;46.72;100970.20;105853;1290;75590;-79
2022/05/26 09:40:32;;;;;;;12.60;4.20;;;;;;;24.25;46.65;100966.71;105421;1291;61583;-79
2022/05/26 09:43:02;;;;;;;11.20;4.20;;;;;;;24.23;46.65;100970.64;106076;1289;60370;-79
2022/05/26 09:45:44;;;;;;;11.00;4.20;;;;;;;24.23;46.71;100968.39;106596;1290;72905;-80
2022/05/26 09:48:33;;;;;;;14.20;4.60;;;;;;;24.22;46.64;100977.58;106751;1289;75686;-80
2022/05/26 09:51:02;;;;;;;;;;;;;;;24.21;46.67;100981.08;106948;1283;61202;-79
2022/05/26 09:53:33;;;;;;;12.40;4.10;;;;;;;24.22;46.71;100979.42;107356;1283;60316;-80
2022/05/26 09:55:59;;;;;;;12.40;4.00;;;;;;;24.25;46.67;100978.06;107227;1283;72655;-79
2022/05/26 09:58:29;;;;;;;12.00;3.80;;;;;;;24.27;46.75;100978.45;107327;1283;59530;-79
2022/05/26 10:00:58;;;;;;;14.20;4.00;;;;;;;24.30;46.83;100980.36;107465;1284;60218;-81
2022/05/26 10:03:36;;;;;;;11.50;3.90;;;;;;;24.32;46.88;100975.16;107009;1284;60262;-80
2022/05/26 10:06:33;;;;;;;14.60;3.70;;;;;;;24.34;46.84;100970.48;107567;1283;74109;-80
2022/05/26 10:09:33;;;;;;;11.70;3.70;;;;;;;24.36;46.83;100964.08;106570;1290;74916;-81
2022/05/26 10:12:34;;;;;;;13.20;3.60;;;;;;;24.38;46.57;100964.40;106106;1297;60402;-80
2022/05/26 10:15:11;;;;;;;9.00;3.30;;;;;;;24.38;46.59;100964.27;105226;1295;60295;-80
2022/05/26 10:17:59;;;;;;;12.20;3.40;;;;;;;24.38;46.45;100967.66;105071;1295;72906;-79
2022/05/26 10:20:32;;;;;;;12.00;3.50;;;;;;;24.39;46.16;100965.96;105148;1295;75574;-80
2022/05/26 10:23:29;;;;;;;14.70;3.60;;;;;;;24.40;46.15;100972.00;105227;1295;61204;-81
2022/05/26 10:26:16;;;;;;;12.80;3.30;;;;;;;24.40;46.05;100969.81;104958;1295;61438;-80
2022/05/26 10:29:06;;;;;;;8.80;3.70;;;;;;;24.40;46.01;100968.42;105090;1294;73697;-80
2022/05/26 10:31:49;;;;;;;13.60;3.70;;;;;;;24.38;45.99;100969.64;106096;1295;75201;-81
2022/05/26 10:34:36;;;;;;;8.60;3.30;;;;;;;24.37;46.06;100966.86;105415;1295;61360;-81
2022/05/26 10:37:24;;;;;;;9.10;3.60;;;;;;;24.36;46.04;100959.38;105452;1293;60155;-80
2022/05/26 10:40:25;;;;;;;8.30;3.00;;;;;;;24.36;46.00;100958.50;105400;1295;72342;-80
2022/05/26 10:43:18;;;;;;;13.70;3.70;;;;;;;24.36;46.16;100953.08;104880;1300;75855;-81
2022/05/26 10:45:48;;;;;;;16.70;4.30;;;;;;;24.38;46.11;100941.52;105056;1295;61768;-81
2022/05/26 10:48:55;;;;;;;14.90;3.90;;;;;;;24.40;46.08;100938.00;105264;1295;61578;-80
2022/05/26 10:51:42;;;;;;;11.80;3.10;;;;;;;24.41;46.15;100943.86;105097;1297;72712;-80
2022/05/26 10:54:15;;;;;;;10.40;3.70;;;;;;;24.42;46.05;100939.96;106567;1290;74111;-81
2022/05/26 10:56:49;;;;;;;8.80;3.80;;;;;;;24.45;46.00;100940.48;106397;1291;59440;-81
2022/05/26 10:59:29;;;;;;;8.90;3.00;;;;;;;24.47;45.82;100932.55;106575;1289;61375;-81
2022/05/26 11:01:56;;;;;;;11.60;3.80;;;;;;;24.49;45.82;100924.70;106432;1291;72665;-81
2022/05/26 11:04:43;;;;;;;13.90;3.50;;;;;;;24.50;45.84;100926.36;106519;1290;75600;-81
2022/05/26 11:07:16;;;;;;;22.60;4.20;;;;;;;24.51;45.78;100923.20;106612;1290;61076;-81
2022/05/26 11:10:12;;;;;;;28.40;4.30;;;;;;;24.52;45.68;100920.40;106552;1290;61144;-81
2022/05/26 11:12:44;;;;;;;69.40;6.50;;;;;;;24.53;45.59;100923.80;106189;1293;73877;-81
2022/05/26 11:18:09;;;;;;;74.30;6.30;;;;;;;24.52;45.86;100920.44;106410;1291;61377;-81
2022/05/26 11:20:54;;;;;;;65.30;5.90;;;;;;;24.53;45.61;100914.60;107022;1284;60152;-81
2022/05/26 11:23:27;;;;;;;65.80;6.20;;;;;;;24.54;45.51;100904.27;107058;1283;72645;-81
2022/05/26 11:26:02;;;;;;;16.70;4.20;;;;;;;24.55;45.46;100908.34;106680;1284;76284;-81
2022/05/26 11:28:31;;;;;;;19.30;3.40;;;;;;;24.55;45.42;100913.73;106630;1283;61422;-80
2022/05/26 11:37:03;;;;;;;9.30;3.20;;;;;;;24.57;45.23;100907.23;106710;1283;75303;-81
2022/05/26 11:39:37;;;;;;;56.80;5.20;;;;;;;24.57;44.98;100904.68;106799;1282;61291;-80
2022/05/26 11:42:08;;;;;;;26.40;4.10;;;;;;;24.57;44.99;100902.92;106647;1283;61283;-80
2022/05/26 11:44:38;;;;;;;11.50;3.00;;;;;;;24.56;44.89;100906.07;107010;1283;73734;-80
2022/05/26 11:47:24;;;;;;;17.80;2.90;;;;;;;24.58;44.58;100902.84;106434;1281;74924;-80
2022/05/26 11:49:51;;;;;;;32.00;3.50;;;;;;;24.62;44.29;100896.44;106379;1283;61175;-80
2022/05/26 11:52:26;;;;;;;11.40;2.50;;;;;;;24.61;44.09;100900.08;107012;1282;61674;-81
2022/05/26 11:54:55;;;;;;;18.00;2.70;;;;;;;24.63;43.78;100900.34;106919;1283;73700;-80
2022/05/26 11:57:33;;;;;;;20.90;3.40;;;;;;;24.65;43.36;100895.52;106878;1283;75729;-80
2022/05/26 12:00:18;;;;;;;16.20;3.50;;;;;;;24.64;43.25;100903.98;106754;1283;61193;-80
2022/05/26 12:02:45;;;;;;;12.30;2.90;;;;;;;24.62;43.13;100897.88;106794;1283;61129;-80
2022/05/26 12:05:37;;;;;;;12.50;2.90;;;;;;;24.59;43.03;100890.84;106719;1283;73806;-80
2022/05/26 12:08:05;;;;;;;10.70;2.70;;;;;;;24.57;42.99;100896.47;106775;1283;75615;-80
2022/05/26 12:10:51;;;;;;;10.70;3.10;;;;;;;24.54;42.68;100896.14;106780;1283;60808;-81